Time;durP1;ratioP1;P1;durP2;ratioP2;P2;SDS_P1;SDS_P2;PMS_P1;PMS_P2;Temp;Humidity;BMP_temperature;BMP_pressure;BME280_temperature;BME280_humidity;BME280_pressure;Samples;Min_cycle;Max_cycle;Signal;HPM_P1;HPM_P2
2021/07/24 00:01:14;;;;;;;;;22.00;20.50;;;;;25.67;44.83;100312.63;5058711;28;45162;-64
2021/07/24 00:03:41;;;;;;;;;20.25;18.25;;;;;25.70;44.56;100288.34;5057945;28;45345;-64
2021/07/24 00:06:07;;;;;;;;;22.50;18.75;;;;;25.74;44.61;100288.88;5059012;28;45334;-64
2021/07/24 00:08:33;;;;;;;;;18.00;16.75;;;;;25.72;44.10;100280.22;5058059;28;45339;-64
2021/07/24 00:11:06;;;;;;;;;24.00;21.00;;;;;25.72;44.22;100294.38;5059010;28;45263;-64
2021/07/24 00:13:33;;;;;;;;;21.25;20.00;;;;;25.70;44.60;100296.34;5057765;28;45506;-64
2021/07/24 00:15:59;;;;;;;;;21.75;18.75;;;;;25.68;45.25;100292.16;5058588;28;45455;-64
2021/07/24 00:18:24;;;;;;;;;21.75;18.00;;;;;25.64;44.54;100294.25;5057427;28;45487;-64
2021/07/24 00:20:49;;;;;;;;;22.25;21.75;;;;;25.67;44.31;100286.00;5047137;28;45375;-64
2021/07/24 00:23:15;;;;;;;;;19.50;18.50;;;;;25.70;44.85;100285.69;5046762;28;45440;-64
2021/07/24 00:25:40;;;;;;;;;20.50;20.25;;;;;25.73;45.15;100271.25;5026821;28;45317;-63
2021/07/24 00:28:07;;;;;;;;;21.50;19.75;;;;;25.70;44.28;100264.41;5048001;28;45300;-64
2021/07/24 00:30:36;;;;;;;;;23.00;20.75;;;;;25.68;44.59;100271.72;5029955;28;45542;-64
2021/07/24 00:33:01;;;;;;;;;17.75;16.50;;;;;25.71;44.57;100283.88;5048042;28;46132;-64
2021/07/24 00:35:27;;;;;;;;;20.00;19.50;;;;;25.72;44.52;100286.38;5049359;28;45322;-64
2021/07/24 00:37:52;;;;;;;;;20.75;17.50;;;;;25.74;43.83;100281.75;5048318;28;45770;-66
2021/07/24 00:40:21;;;;;;;;;20.50;17.50;;;;;25.74;43.77;100283.56;5048321;28;45758;-66
2021/07/24 00:42:51;;;;;;;;;20.00;16.00;;;;;25.74;43.42;100286.22;5045638;28;45383;-65
2021/07/24 00:45:18;;;;;;;;;21.00;17.75;;;;;25.74;43.01;100287.06;5032761;28;45627;-65
2021/07/24 00:47:46;;;;;;;;;21.50;17.50;;;;;25.77;43.61;100280.59;5031077;28;45483;-65
2021/07/24 00:50:15;;;;;;;;;20.75;17.25;;;;;25.76;43.00;100274.44;5052200;28;45235;-65
2021/07/24 00:52:42;;;;;;;;;20.25;16.50;;;;;25.80;43.08;100298.09;5042019;28;47127;-66
2021/07/24 00:55:10;;;;;;;;;25.50;18.00;;;;;25.80;43.22;100300.75;5061659;28;45651;-65
2021/07/24 00:57:36;;;;;;;;;18.75;16.50;;;;;25.81;43.38;100307.75;5060714;28;45368;-65
2021/07/24 01:00:04;;;;;;;;;19.00;19.00;;;;;25.83;42.83;100305.78;5061901;28;45234;-64
2021/07/24 01:02:29;;;;;;;;;23.25;20.75;;;;;25.84;43.14;100307.47;5059916;28;45362;-65
2021/07/24 01:04:55;;;;;;;;;22.50;20.75;;;;;25.82;43.02;100315.59;5061546;28;45453;-64
2021/07/24 01:07:20;;;;;;;;;19.50;16.75;;;;;25.83;42.86;100311.09;5055510;28;45412;-64
2021/07/24 01:09:45;;;;;;;;;19.00;15.75;;;;;25.84;43.10;100299.50;5053977;28;45392;-64
2021/07/24 01:12:11;;;;;;;;;21.75;16.50;;;;;25.86;42.68;100278.88;5060442;28;45284;-65
2021/07/24 01:14:36;;;;;;;;;15.25;14.75;;;;;25.87;42.81;100276.06;5061308;28;45319;-65
2021/07/24 01:17:02;;;;;;;;;20.00;17.75;;;;;25.87;42.95;100267.22;5054710;28;45522;-64
2021/07/24 01:19:28;;;;;;;;;15.00;15.00;;;;;25.88;42.48;100268.91;5052640;28;45481;-64
2021/07/24 01:21:54;;;;;;;;;18.00;16.00;;;;;25.88;42.99;100256.44;5059320;28;46263;-65
2021/07/24 01:24:20;;;;;;;;;19.00;15.50;;;;;25.87;42.61;100259.25;5048528;28;45272;-64
2021/07/24 01:26:47;;;;;;;;;15.75;15.00;;;;;25.88;43.03;100266.25;5043712;28;45245;-65
2021/07/24 01:29:17;;;;;;;;;19.50;17.25;;;;;25.91;42.62;100260.59;5056398;28;45333;-65
2021/07/24 01:31:42;;;;;;;;;18.50;18.50;;;;;25.88;42.82;100261.75;5039797;28;45343;-65
2021/07/24 01:34:09;;;;;;;;;18.75;16.75;;;;;25.85;42.98;100275.38;5056073;28;45516;-65
2021/07/24 01:36:34;;;;;;;;;19.75;19.50;;;;;25.83;43.40;100290.66;5032957;28;45481;-65
2021/07/24 01:39:00;;;;;;;;;17.25;16.00;;;;;25.77;43.75;100284.09;5030989;28;45448;-65
2021/07/24 01:41:26;;;;;;;;;19.75;17.00;;;;;25.69;44.20;100289.34;5029426;28;46345;-65
2021/07/24 01:43:51;;;;;;;;;18.00;15.25;;;;;25.62;45.62;100303.34;5031098;28;45212;-65
2021/07/24 01:46:16;;;;;;;;;15.50;12.00;;;;;25.41;47.89;100308.94;5027005;28;45490;-64
2021/07/24 01:53:54;;;;;;;;;17.75;13.50;;;;;25.01;51.91;100323.38;5040329;28;45153;-62
2021/07/24 01:56:27;;;;;;;;;14.00;13.50;;;;;24.95;51.33;100328.41;5027281;28;45426;-62
2021/07/24 01:58:53;;;;;;;;;14.50;11.75;;;;;24.79;53.66;100329.84;5039685;28;45385;-62
2021/07/24 02:01:21;;;;;;;;;13.25;12.25;;;;;24.74;53.66;100320.63;5040027;28;45281;-62
2021/07/24 02:03:55;;;;;;;;;9.25;8.25;;;;;24.61;54.16;100306.81;5039869;28;45260;-62
2021/07/24 02:06:21;;;;;;;;;15.50;10.75;;;;;24.54;55.20;100307.38;5040688;28;45445;-61
2021/07/24 02:08:48;;;;;;;;;12.75;12.00;;;;;24.48;55.64;100323.06;5039800;28;45353;-62
2021/07/24 02:11:15;;;;;;;;;10.25;9.50;;;;;24.43;55.77;100310.22;5040356;28;47102;-66
2021/07/24 02:13:41;;;;;;;;;11.75;9.00;;;;;24.38;55.55;100314.25;5039435;28;45577;-65
2021/07/24 02:16:07;;;;;;;;;9.25;9.25;;;;;24.29;56.50;100315.09;5040154;28;45283;-64
2021/07/24 02:18:33;;;;;;;;;9.25;8.75;;;;;24.26;55.44;100321.50;5035514;28;45279;-63
2021/07/24 02:21:00;;;;;;;;;11.25;7.25;;;;;24.24;56.34;100329.63;5031627;28;45307;-63
2021/07/24 02:23:26;;;;;;;;;10.50;10.00;;;;;24.20;57.06;100336.16;5030226;28;45320;-63
2021/07/24 02:25:51;;;;;;;;;10.50;9.00;;;;;24.12;57.95;100328.06;5023192;28;45311;-63
2021/07/24 02:28:17;;;;;;;;;12.25;12.00;;;;;24.10;57.83;100331.84;5036519;28;45589;-64
2021/07/24 02:30:42;;;;;;;;;12.50;10.50;;;;;24.03;58.45;100330.69;5059998;28;46138;-63
2021/07/24 02:33:07;;;;;;;;;10.00;10.00;;;;;24.03;57.45;100325.38;5047944;28;45474;-63
2021/07/24 02:35:33;;;;;;;;;9.50;9.50;;;;;24.06;57.78;100333.09;5056870;28;45366;-63
2021/07/24 02:37:59;;;;;;;;;10.00;8.50;;;;;24.06;57.35;100341.91;5049743;28;45224;-62
2021/07/24 02:40:24;;;;;;;;;10.50;9.50;;;;;24.06;57.22;100335.75;5030402;28;48072;-62
2021/07/24 02:42:50;;;;;;;;;11.00;8.25;;;;;24.05;57.11;100339.38;5048143;28;45426;-61
2021/07/24 02:45:15;;;;;;;;;12.75;11.50;;;;;24.03;56.68;100350.16;5049426;28;45565;-62
2021/07/24 02:47:41;;;;;;;;;13.00;12.50;;;;;24.06;56.45;100341.06;5049538;28;45832;-62
2021/07/24 02:50:07;;;;;;;;;9.00;9.00;;;;;24.04;57.23;100338.56;5050281;28;46542;-63
2021/07/24 02:52:32;;;;;;;;;9.25;8.25;;;;;24.03;57.38;100338.66;5049707;28;45435;-63
2021/07/24 02:54:58;;;;;;;;;13.50;10.00;;;;;24.00;56.78;100337.13;5050263;28;45419;-63
2021/07/24 02:57:23;;;;;;;;;11.75;9.00;;;;;24.02;56.21;100326.38;5046736;28;45510;-63
2021/07/24 02:59:48;;;;;;;;;8.50;8.25;;;;;24.03;56.08;100317.44;5049090;28;46218;-65
2021/07/24 03:02:16;;;;;;;;;10.75;8.50;;;;;24.00;55.70;100320.38;5048160;28;45741;-64
2021/07/24 03:04:42;;;;;;;;;9.00;8.00;;;;;23.95;56.51;100320.78;5050569;28;45806;-61
2021/07/24 03:07:08;;;;;;;;;10.50;9.50;;;;;23.83;56.56;100314.78;5043623;28;45766;-60
2021/07/24 03:09:33;;;;;;;;;10.00;9.00;;;;;23.80;56.30;100320.34;5047686;28;46345;-60
2021/07/24 03:11:58;;;;;;;;;7.25;7.25;;;;;23.77;56.89;100322.44;5048881;28;45782;-60
2021/07/24 03:14:24;;;;;;;;;7.00;7.00;;;;;23.71;56.65;100323.81;5048558;28;45518;-60
2021/07/24 03:16:49;;;;;;;;;9.50;6.00;;;;;23.62;56.32;100330.78;5047019;28;45614;-60
2021/07/24 03:19:14;;;;;;;;;8.50;6.75;;;;;23.56;56.71;100347.25;5047931;28;45327;-58
2021/07/24 03:21:40;;;;;;;;;6.25;6.25;;;;;23.52;56.79;100359.06;5050722;28;45261;-58
2021/07/24 03:24:05;;;;;;;;;8.00;5.50;;;;;23.45;56.72;100365.88;5046625;28;45272;-58
2021/07/24 03:26:31;;;;;;;;;4.75;4.25;;;;;23.36;56.92;100369.31;5049012;28;45430;-60
2021/07/24 03:28:56;;;;;;;;;7.25;6.00;;;;;23.31;56.63;100375.03;5049164;28;46331;-60
2021/07/24 03:31:21;;;;;;;;;9.00;7.00;;;;;23.20;57.06;100364.50;5049297;28;45271;-60
2021/07/24 03:33:47;;;;;;;;;6.50;6.00;;;;;23.19;56.84;100365.47;5051511;28;45336;-60
2021/07/24 03:36:12;;;;;;;;;9.25;7.25;;;;;23.20;56.74;100368.97;5049927;28;45423;-59
2021/07/24 03:38:37;;;;;;;;;7.75;6.00;;;;;23.12;57.07;100364.34;5051149;28;47252;-58
2021/07/24 03:41:06;;;;;;;;;5.50;5.00;;;;;23.00;57.26;100384.75;5058384;28;45171;-52
2021/07/24 03:43:32;;;;;;;;;7.00;5.75;;;;;23.00;57.61;100389.22;5059414;28;45291;-56
2021/07/24 03:45:58;;;;;;;;;6.75;5.00;;;;;22.98;57.25;100393.81;5057953;28;45395;-62
2021/07/24 03:48:24;;;;;;;;;7.00;5.00;;;;;22.92;57.49;100410.25;5059024;28;46138;-57
2021/07/24 03:50:49;;;;;;;;;8.25;6.50;;;;;22.90;57.72;100414.84;5058401;28;45912;-57
2021/07/24 03:53:15;;;;;;;;;8.00;7.00;;;;;;;;5059439;28;45291;-57
2021/07/24 03:55:40;;;;;;;;;7.25;7.25;;;;;22.90;57.49;100434.22;5058342;28;45256;-57
2021/07/24 03:58:05;;;;;;;;;5.25;5.00;;;;;22.97;57.30;100442.50;5058607;28;51883;-59
2021/07/24 04:00:39;;;;;;;;;9.00;6.00;;;;;22.98;57.09;100442.34;5058016;28;45153;-57
2021/07/24 04:03:04;;;;;;;;;6.00;5.50;;;;;23.00;56.86;100445.72;5058921;28;45312;-69
2021/07/24 04:05:34;;;;;;;;;8.00;6.00;;;;;23.01;56.52;100450.06;5058293;28;45558;-61
2021/07/24 04:08:00;;;;;;;;;6.00;4.50;;;;;23.00;55.95;100460.78;5048572;28;46575;-57
2021/07/24 04:10:26;;;;;;;;;6.75;5.75;;;;;22.96;56.41;100459.38;5051623;28;45236;-58
2021/07/24 04:12:53;;;;;;;;;8.25;4.50;;;;;22.85;55.92;100454.97;5054643;28;45398;-59
2021/07/24 04:15:19;;;;;;;;;14.00;11.00;;;;;22.78;56.14;100462.53;5056018;28;45424;-57
2021/07/24 04:17:45;;;;;;;;;15.00;13.00;;;;;22.76;56.16;100463.63;5057147;28;46332;-57
2021/07/24 04:20:11;;;;;;;;;6.00;5.00;;;;;22.77;55.97;100476.75;5059932;28;45433;-60
2021/07/24 04:22:36;;;;;;;;;5.00;5.00;;;;;22.78;55.89;100482.91;5055406;28;45300;-64
2021/07/24 04:25:01;;;;;;;;;6.50;5.25;;;;;22.76;55.92;100475.06;5049496;28;45424;-55
2021/07/24 04:27:27;;;;;;;;;6.00;6.00;;;;;22.75;55.59;100470.75;5050104;28;45266;-56
2021/07/24 04:29:52;;;;;;;;;5.00;5.00;;;;;22.77;55.76;100468.81;5061277;28;45360;-58
2021/07/24 04:32:17;;;;;;;;;7.75;6.25;;;;;22.79;55.78;100473.97;5053591;28;45305;-58
2021/07/24 04:34:42;;;;;;;;;7.50;5.75;;;;;22.78;56.08;100475.78;5058817;28;45265;-53
2021/07/24 04:37:08;;;;;;;;;4.25;4.25;;;;;22.75;56.90;100451.38;5053981;28;46230;-55
2021/07/24 04:39:33;;;;;;;;;7.50;6.50;;;;;22.67;56.51;100469.72;5056070;28;45247;-54
2021/07/24 04:41:58;;;;;;;;;10.75;7.50;;;;;22.64;56.34;100486.69;5061653;28;47013;-56
2021/07/24 04:44:24;;;;;;;;;6.50;5.25;;;;;22.63;56.60;100470.94;5059727;28;45559;-56
2021/07/24 04:46:50;;;;;;;;;5.25;5.25;;;;;22.58;57.13;100473.09;5060743;28;45948;-56
2021/07/24 04:49:16;;;;;;;;;7.00;6.75;;;;;22.51;56.96;100475.41;5060437;28;45312;-56
2021/07/24 04:51:41;;;;;;;;;8.25;7.00;;;;;22.53;56.96;100478.78;5058210;28;45738;-56
2021/07/24 04:54:08;;;;;;;;;9.75;6.25;;;;;22.59;56.79;100488.03;5056830;28;45652;-56
2021/07/24 04:56:36;;;;;;;;;8.50;7.50;;;;;22.55;56.90;100481.31;5039307;28;46307;-56
2021/07/24 04:59:05;;;;;;;;;7.00;7.00;;;;;22.54;56.89;100480.47;5056689;28;45774;-55
2021/07/24 05:01:30;;;;;;;;;9.00;7.00;;;;;22.54;56.86;100483.09;5057680;28;45665;-56
2021/07/24 05:03:57;;;;;;;;;9.75;7.00;;;;;22.53;56.72;100497.31;5057149;28;45812;-56
2021/07/24 05:06:23;;;;;;;;;6.00;5.50;;;;;22.55;56.87;100498.03;5059856;28;46203;-56
2021/07/24 05:08:48;;;;;;;;;11.00;7.75;;;;;22.57;56.59;100504.03;5060722;28;45276;-56
2021/07/24 05:11:13;;;;;;;;;7.00;6.00;;;;;22.54;57.22;100520.19;5061771;28;45475;-56
2021/07/24 05:13:38;;;;;;;;;8.50;7.00;;;;;22.53;57.01;100505.25;5060690;28;45283;-55
2021/07/24 05:16:04;;;;;;;;;7.00;7.00;;;;;22.57;56.84;100511.16;5060878;28;45997;-56
2021/07/24 05:18:29;;;;;;;;;6.25;6.00;;;;;22.60;56.80;100506.44;5060678;28;45307;-56
2021/07/24 05:20:55;;;;;;;;;9.50;7.00;;;;;22.62;56.98;100515.09;5061594;28;45525;-56
2021/07/24 05:23:20;;;;;;;;;10.00;7.00;;;;;22.66;56.96;100516.56;5051868;28;45427;-55
2021/07/24 05:25:45;;;;;;;;;8.00;6.50;;;;;22.73;56.81;100514.22;5045352;28;45261;-56
2021/07/24 05:28:12;;;;;;;;;7.75;6.75;;;;;22.75;56.68;100523.75;5055463;28;45704;-56
2021/07/24 05:30:37;;;;;;;;;8.50;8.50;;;;;22.59;56.81;100518.00;5060971;28;45355;-55
2021/07/24 05:33:03;;;;;;;;;11.00;6.25;;;;;22.58;57.03;100523.41;5059766;28;45549;-58
2021/07/24 05:35:28;;;;;;;;;8.00;7.75;;;;;22.60;56.87;100518.84;5055986;28;45325;-58
2021/07/24 05:37:53;;;;;;;;;7.00;7.00;;;;;22.60;56.58;100527.63;5054965;28;45304;-59
2021/07/24 05:40:19;;;;;;;;;7.75;7.75;;;;;22.55;56.71;100526.31;5061237;28;45425;-58
2021/07/24 05:42:44;;;;;;;;;7.00;6.50;;;;;22.53;56.14;100530.91;5059992;28;45408;-58
2021/07/24 05:45:10;;;;;;;;;10.25;8.00;;;;;22.44;57.10;100529.84;5061100;28;45578;-58
2021/07/24 05:47:35;;;;;;;;;9.75;6.50;;;;;22.23;57.76;100526.28;5059668;28;45405;-58
2021/07/24 05:50:04;;;;;;;;;5.75;5.25;;;;;22.10;57.66;100521.94;5053225;28;45324;-58
2021/07/24 05:52:30;;;;;;;;;8.00;8.00;;;;;22.12;58.13;100527.94;5055407;28;45408;-58
2021/07/24 05:54:55;;;;;;;;;7.00;6.00;;;;;22.21;57.93;100525.53;5060978;28;45204;-58
2021/07/24 05:57:21;;;;;;;;;7.50;6.50;;;;;22.35;57.53;100526.13;5059837;28;45291;-58
2021/07/24 05:59:46;;;;;;;;;5.75;5.75;;;;;22.42;57.42;100524.66;5060959;28;45243;-58
2021/07/24 06:02:13;;;;;;;;;9.25;8.75;;;;;22.25;57.47;100519.06;5059601;28;45433;-55
2021/07/24 06:04:44;;;;;;;;;10.25;6.75;;;;;22.11;57.84;100518.34;5060734;28;45249;-55
2021/07/24 06:07:11;;;;;;;;;7.00;5.25;;;;;22.00;57.82;100513.00;5056892;28;45529;-55
2021/07/24 06:09:36;;;;;;;;;7.00;7.00;;;;;21.94;58.21;100523.22;5051246;28;45350;-55
2021/07/24 06:12:02;;;;;;;;;9.50;8.00;;;;;21.88;58.24;100519.28;5059745;28;45436;-55
2021/07/24 06:14:27;;;;;;;;;7.00;6.25;;;;;21.87;58.87;100520.22;5060608;28;46176;-55
2021/07/24 06:16:53;;;;;;;;;7.50;6.00;;;;;21.82;59.54;100519.72;5059312;28;45284;-63
2021/07/24 06:19:19;;;;;;;;;2.50;2.50;;;;;21.75;59.33;100515.88;5050723;28;45297;-64
2021/07/24 06:21:45;;;;;;;;;8.25;8.00;;;;;21.75;59.13;100518.53;5056735;28;45451;-63
2021/07/24 06:24:11;;;;;;;;;7.50;7.25;;;;;21.84;59.29;100512.53;5036773;28;46437;-63
2021/07/24 06:26:40;;;;;;;;;7.25;6.50;;;;;21.93;59.72;100521.53;5042505;28;45312;-63
2021/07/24 06:29:06;;;;;;;;;9.00;7.50;;;;;21.92;59.44;100507.47;5060335;28;45375;-64
2021/07/24 06:31:31;;;;;;;;;6.50;6.50;;;;;21.98;59.24;100509.63;5059080;28;45254;-64
2021/07/24 06:33:57;;;;;;;;;8.50;7.25;;;;;22.06;59.26;100515.22;5059943;28;45922;-64
2021/07/24 06:36:22;;;;;;;;;8.50;6.75;;;;;22.06;58.99;100517.03;5048941;28;45299;-64
2021/07/24 06:38:48;;;;;;;;;8.50;8.00;;;;;22.03;59.01;100515.44;5060447;28;45235;-62
2021/07/24 06:41:13;;;;;;;;;9.00;6.50;;;;;21.95;59.28;100522.25;5046498;28;45220;-62
2021/07/24 06:43:39;;;;;;;;;7.00;6.25;;;;;21.94;58.91;100510.00;5059302;28;45273;-62
2021/07/24 06:46:12;;;;;;;;;6.25;5.50;;;;;22.07;58.16;100516.91;5059042;28;45218;-62
2021/07/24 06:48:37;;;;;;;;;8.00;6.50;;;;;22.13;57.82;100513.75;5060159;28;45355;-62
2021/07/24 06:51:06;;;;;;;;;8.25;7.00;;;;;22.03;58.08;100520.72;5059048;28;45245;-62
2021/07/24 06:53:32;;;;;;;;;9.75;7.00;;;;;22.04;57.76;100518.91;5059880;28;46019;-62
2021/07/24 06:55:58;;;;;;;;;9.00;6.75;;;;;22.13;57.60;100511.09;5059072;28;45894;-62
2021/07/24 06:58:23;;;;;;;;;8.00;6.25;;;;;22.19;57.42;100514.22;5059908;28;45506;-62
2021/07/24 07:00:48;;;;;;;;;5.50;5.00;;;;;22.30;56.76;100514.22;5058473;28;45214;-62
2021/07/24 07:03:14;;;;;;;;;7.25;5.75;;;;;22.43;56.57;100518.41;5059573;28;45310;-62
2021/07/24 07:05:39;;;;;;;;;7.25;6.00;;;;;22.52;56.32;100516.81;5058823;28;45634;-62
2021/07/24 07:08:05;;;;;;;;;9.00;7.00;;;;;22.66;55.79;100513.06;5059738;28;45505;-62
2021/07/24 07:10:30;;;;;;;;;7.25;6.00;;;;;22.74;55.28;100513.25;5058937;28;45409;-59
2021/07/24 07:12:55;;;;;;;;;6.00;6.00;;;;;22.68;55.22;100505.84;5059381;28;45380;-59
2021/07/24 07:15:24;;;;;;;;;4.50;4.50;;;;;22.64;55.14;100507.91;5058395;28;48041;-59
2021/07/24 07:17:49;;;;;;;;;6.50;4.50;;;;;22.61;55.01;100518.72;5059266;28;45466;-59
2021/07/24 07:20:15;;;;;;;;;7.25;7.00;;;;;22.72;54.91;100526.63;5058610;28;45321;-59
2021/07/24 07:22:40;;;;;;;;;8.00;7.00;;;;;22.82;54.34;100534.69;5051468;28;46477;-59
2021/07/24 07:25:06;;;;;;;;;5.00;4.00;;;;;22.96;53.96;100537.06;5044409;28;45448;-59
2021/07/24 07:27:31;;;;;;;;;4.75;4.75;;;;;22.93;53.93;100533.84;5049057;28;45424;-59
2021/07/24 07:29:56;;;;;;;;;7.25;7.25;;;;;22.94;53.82;100530.22;5058952;28;45244;-58
2021/07/24 07:32:22;;;;;;;;;7.25;5.00;;;;;22.98;53.40;100532.47;5058990;28;45280;-59
2021/07/24 07:34:47;;;;;;;;;6.50;5.00;;;;;23.04;53.52;100537.28;5058492;28;45512;-59
2021/07/24 07:37:12;;;;;;;;;5.50;4.00;;;;;23.11;53.20;100534.97;5049844;28;45320;-59
2021/07/24 07:39:38;;;;;;;;;4.75;4.00;;;;;23.17;53.34;100533.59;5058722;28;45622;-59
2021/07/24 07:42:03;;;;;;;;;7.00;6.00;;;;;23.31;52.51;100539.44;5059279;28;46257;-59
2021/07/24 07:44:29;;;;;;;;;6.00;5.00;;;;;23.37;52.68;100543.38;5058526;28;45268;-58
2021/07/24 07:46:55;;;;;;;;;6.00;5.25;;;;;23.46;52.64;100537.31;5059106;28;45349;-58
2021/07/24 07:49:21;;;;;;;;;5.75;4.00;;;;;23.65;52.16;100540.13;5057236;28;45767;-59
2021/07/24 07:51:46;;;;;;;;;7.25;5.00;;;;;23.70;51.34;100537.06;5059232;28;45281;-58
2021/07/24 07:54:11;;;;;;;;;6.00;5.50;;;;;23.65;51.82;100540.13;5058855;28;45300;-59
2021/07/24 07:56:37;;;;;;;;;7.50;4.00;;;;;23.74;51.75;100530.53;5061323;28;45450;-59
2021/07/24 07:59:03;;;;;;;;;5.25;5.25;;;;;23.90;51.10;100530.88;5062149;28;45233;-59
2021/07/24 08:01:29;;;;;;;;;6.50;6.00;;;;;23.95;50.69;100528.66;5062308;28;45264;-59
2021/07/24 08:03:54;;;;;;;;;9.75;5.75;;;;;24.02;50.07;100528.13;5062108;28;45194;-58
2021/07/24 08:06:19;;;;;;;;;7.25;6.25;;;;;23.88;50.82;100524.88;5062771;28;45465;-58
2021/07/24 08:08:44;;;;;;;;;4.00;4.00;;;;;23.74;50.52;100527.03;5060705;28;45427;-58
2021/07/24 08:11:10;;;;;;;;;3.25;3.00;;;;;23.57;50.71;100520.50;5062303;28;45239;-57
2021/07/24 08:13:35;;;;;;;;;5.25;5.25;;;;;23.49;50.91;100523.78;5061702;28;45381;-57
2021/07/24 08:16:01;;;;;;;;;7.00;5.00;;;;;23.45;50.61;100519.72;5062243;28;45339;-57
2021/07/24 08:18:26;;;;;;;;;7.25;6.75;;;;;23.46;50.90;100521.41;5061790;28;45385;-57
2021/07/24 08:20:52;;;;;;;;;8.00;4.75;;;;;23.54;50.90;100526.03;5062247;28;46061;-57
2021/07/24 08:23:17;;;;;;;;;7.00;5.00;;;;;23.71;50.89;100522.81;5052919;28;45534;-57
2021/07/24 08:25:43;;;;;;;;;6.50;5.00;;;;;23.95;50.45;100528.66;5046929;28;45315;-57
2021/07/24 08:28:09;;;;;;;;;4.00;4.00;;;;;24.17;50.26;100513.50;5056048;28;45459;-57
2021/07/24 08:30:35;;;;;;;;;9.00;5.00;;;;;24.37;49.02;100522.41;5061379;28;45281;-57
2021/07/24 08:33:01;;;;;;;;;6.25;5.75;;;;;24.37;49.22;100509.97;5060671;28;45542;-57
2021/07/24 08:35:27;;;;;;;;;6.50;3.75;;;;;24.35;49.09;100516.41;5057362;28;45425;-57
2021/07/24 08:37:52;;;;;;;;;1.00;1.00;;;;;24.31;49.13;100518.50;5056150;28;45255;-57
2021/07/24 08:40:17;;;;;;;;;8.00;5.25;;;;;24.38;49.12;100516.97;5060375;28;48499;-64
2021/07/24 08:42:43;;;;;;;;;9.00;5.25;;;;;24.58;47.66;100516.00;5060835;28;45228;-65
2021/07/24 08:45:10;;;;;;;;;6.25;4.00;;;;;24.65;48.06;100508.34;5062050;28;45401;-63
2021/07/24 08:47:36;;;;;;;;;4.00;4.00;;;;;24.81;48.20;100500.66;5060792;28;45416;-63
2021/07/24 08:50:04;;;;;;;;;5.25;4.25;;;;;24.95;47.27;100499.41;5061889;28;45353;-63
2021/07/24 08:52:32;;;;;;;;;5.50;5.50;;;;;25.02;48.10;100502.34;5060847;28;45416;-63
2021/07/24 08:54:58;;;;;;;;;6.50;4.50;;;;;25.12;47.12;100504.03;5061917;28;45329;-62
2021/07/24 08:57:27;;;;;;;;;10.50;9.00;;;;;24.99;47.11;100492.84;5060536;28;45423;-58
2021/07/24 08:59:55;;;;;;;;;7.25;6.25;;;;;24.93;46.59;100495.22;5061446;28;46349;-58
2021/07/24 09:02:27;;;;;;;;;5.75;4.50;;;;;24.88;46.42;100504.44;5060167;28;45233;-58
2021/07/24 09:04:55;;;;;;;;;5.00;3.50;;;;;24.91;46.85;100507.81;5061270;28;45526;-58
2021/07/24 09:07:26;;;;;;;;;2.00;2.00;;;;;24.83;46.18;100500.53;5060769;28;45471;-58
2021/07/24 09:09:55;;;;;;;;;2.50;2.50;;;;;24.88;46.27;100503.59;5061665;28;45564;-58
2021/07/24 09:12:20;;;;;;;;;5.25;5.00;;;;;25.00;46.49;100509.63;5060533;28;45407;-58
2021/07/24 09:14:46;;;;;;;;;5.00;3.50;;;;;24.99;45.92;100500.81;5061563;28;45355;-58
2021/07/24 09:17:15;;;;;;;;;4.75;4.00;;;;;24.85;45.59;100514.53;5059971;28;45477;-58
2021/07/24 09:19:41;;;;;;;;;5.25;5.25;;;;;24.80;46.39;100508.75;5061254;28;47153;-58
2021/07/24 09:22:29;;;;;;;;;4.50;4.00;;;;;24.95;46.58;100514.50;5057537;28;45372;-58
2021/07/24 09:25:12;;;;;;;;;5.75;5.25;;;;;25.02;46.00;100505.84;5046670;28;45447;-58
2021/07/24 09:27:39;;;;;;;;;6.75;4.00;;;;;24.99;46.00;100508.81;5051429;28;45344;-58
2021/07/24 09:30:07;;;;;;;;;4.50;4.25;;;;;24.97;46.18;100508.06;5059739;28;47019;-58
2021/07/24 09:32:33;;;;;;;;;7.25;5.75;;;;;24.95;46.16;100506.53;5060588;28;45235;-58
2021/07/24 09:34:59;;;;;;;;;8.00;6.00;;;;;25.05;46.05;100508.25;5058761;28;45229;-58
2021/07/24 09:37:32;;;;;;;;;5.25;4.00;;;;;25.15;45.50;100503.75;5052243;28;45430;-58
2021/07/24 09:40:21;;;;;;;;;4.75;4.75;;;;;25.30;45.70;100501.50;5054766;28;46261;-58
2021/07/24 09:42:47;;;;;;;;;6.25;4.00;;;;;25.37;45.37;100504.41;5055600;28;45682;-58
2021/07/24 09:45:12;;;;;;;;;5.25;5.25;;;;;25.44;45.35;100500.22;5060655;28;45309;-58
2021/07/24 09:47:38;;;;;;;;;4.00;4.00;;;;;25.46;44.67;100512.41;5059376;28;45447;-53
2021/07/24 09:50:16;;;;;;;;;4.75;3.25;;;;;25.40;44.54;100509.44;5060600;28;50159;-53
2021/07/24 09:52:52;;;;;;;;;3.25;3.25;;;;;25.37;44.66;100513.25;5059556;28;45435;-53
2021/07/24 09:55:24;;;;;;;;;4.00;4.00;;;;;25.31;44.75;100521.81;5060912;28;45287;-53
2021/07/24 09:57:52;;;;;;;;;5.75;5.25;;;;;25.31;44.21;100524.47;5059289;28;45307;-53
2021/07/24 10:00:32;;;;;;;;;5.00;4.00;;;;;25.44;44.12;100525.00;5059518;28;46367;-53
2021/07/24 10:03:03;;;;;;;;;5.75;5.50;;;;;25.64;44.40;100520.47;5049412;28;45618;-53
2021/07/24 10:05:32;;;;;;;;;5.50;5.50;;;;;25.80;44.61;100521.72;5038693;28;45257;-53
2021/07/24 10:08:01;;;;;;;;;4.00;4.00;;;;;25.99;44.37;100524.28;5050855;28;45313;-54
2021/07/24 10:10:28;;;;;;;;;3.00;3.00;;;;;26.17;44.13;100525.19;5059150;28;46312;-52
2021/07/24 10:12:53;;;;;;;;;5.25;3.00;;;;;26.42;43.61;100525.50;5059215;28;45297;-53
2021/07/24 10:15:18;;;;;;;;;3.00;3.00;;;;;26.50;42.59;100520.28;5059311;28;45404;-53
2021/07/24 10:17:44;;;;;;;;;4.00;4.00;;;;;26.44;42.42;100528.88;5059033;28;45512;-53
2021/07/24 10:20:12;;;;;;;;;4.75;4.75;;;;;26.43;41.49;100529.84;5059168;28;45340;-53
2021/07/24 10:22:37;;;;;;;;;5.75;4.00;;;;;26.43;42.20;100524.53;5052689;28;45428;-53
2021/07/24 10:25:03;;;;;;;;;4.50;4.00;;;;;26.49;41.94;100526.59;5046770;28;45278;-53
2021/07/24 10:27:34;;;;;;;;;5.00;5.00;;;;;26.53;42.24;100528.81;5049454;28;45578;-53
2021/07/24 10:30:04;;;;;;;;;6.50;4.75;;;;;26.64;42.08;100525.94;5059486;28;45261;-53
2021/07/24 10:32:39;;;;;;;;;4.25;4.00;;;;;26.79;42.01;100523.56;5060171;28;45555;-53
2021/07/24 10:35:05;;;;;;;;;5.75;3.75;;;;;26.84;41.27;100525.81;5056686;28;45331;-55
2021/07/24 10:37:38;;;;;;;;;8.00;6.25;;;;;26.75;41.37;100518.72;5052386;28;45518;-52
2021/07/24 10:40:27;;;;;;;;;4.75;2.75;;;;;26.70;41.40;100511.16;5059548;28;46447;-53
2021/07/24 10:42:54;;;;;;;;;6.00;5.00;;;;;26.71;41.52;100504.84;5059120;28;45474;-53
2021/07/24 10:45:32;;;;;;;;;4.00;3.00;;;;;27.10;41.19;100496.56;5059992;28;45340;-53
2021/07/24 10:48:12;;;;;;;;;3.00;3.00;;;;;27.38;40.40;100507.94;5059208;28;45582;-53
2021/07/24 10:50:53;;;;;;;;;3.50;3.50;;;;;27.33;40.26;100510.22;5045607;28;46303;-53
2021/07/24 10:53:18;;;;;;;;;7.00;5.00;;;;;27.15;39.71;100503.09;5050147;28;45462;-53
2021/07/24 10:55:45;;;;;;;;;4.75;4.75;;;;;26.90;40.24;100502.03;5059194;28;45311;-53
2021/07/24 10:58:11;;;;;;;;;4.00;4.00;;;;;27.01;40.35;100498.28;5059819;28;45194;-54
2021/07/24 11:00:50;;;;;;;;;8.25;5.50;;;;;27.14;39.74;100495.25;5058523;28;45932;-53
2021/07/24 11:03:41;;;;;;;;;8.50;6.00;;;;;27.19;39.69;100492.94;5059912;28;45664;-54
2021/07/24 11:06:21;;;;;;;;;6.50;5.50;;;;;27.30;38.47;100495.38;5049004;28;45253;-54
2021/07/24 11:09:17;;;;;;;;;2.50;2.50;;;;;27.42;38.94;100494.09;5059009;28;45546;-54
2021/07/24 11:11:44;;;;;;;;;5.00;4.00;;;;;27.56;38.95;100495.38;5028953;28;46449;-54
2021/07/24 11:14:29;;;;;;;;;6.25;4.00;;;;;27.84;38.53;100488.91;5059679;28;45638;-54
2021/07/24 11:17:04;;;;;;;;;5.25;4.00;;;;;27.99;38.45;100489.09;5058441;28;45342;-55
2021/07/24 11:19:30;;;;;;;;;3.75;3.25;;;;;27.91;37.96;100504.28;5046975;28;45440;-54
2021/07/24 11:22:17;;;;;;;;;8.50;3.00;;;;;27.84;38.36;100514.75;5056965;28;46307;-54
2021/07/24 11:24:52;;;;;;;;;2.00;2.00;;;;;27.92;38.50;100514.78;5048594;28;45243;-54
2021/07/24 11:27:26;;;;;;;;;4.50;4.00;;;;;28.09;38.37;100519.22;5047244;28;45437;-55